Česky Dansk Deutsch English Español Suomi Français Magyar Italiano Nederlands norsk Polski Português svenska Türkçe

 

Het Weer

Joensuu (Finland)

12:20, 13 augustus 2016 (GMT)

NWNNE
WE
SWSSE
Home            
Joensuu Savonlinna Kuopio Varkaus Mikkeli Lappeenranta Viitasaari Kajaani Jyvaskyla Utti Suomussalmi Halli Ahtari St. Peterburg Pudasjarvi Oulu Kauhava Tampere / Pirkkala Kruunupyy Ilmajoki Seinajoki-Ilmajok Hailuoto Helsinki-Vantaa

Om een weerknop op uw website of weblog te plaatsen, copieer onderstaande code en plak die in uw pagina. In het eerste vakje staat HTML-code, in het tweede vakje UBB-code.


Add to Google

Details

Wind speed:4 bf, 13 kn, 6.7 m/s, 15.0 miles/h, 24.1 km/h
Vindstød på up til:6 bf, 27 kn, 13.9 m/s, 31.1 miles/h, 50.0 km/h
Wind direction:E, 090° - SSW, 210°
Visibility:Greater than 10000 m, 10 km, 32800 ft, 6.2 miles
Clouds:Geschlossene Wolkendecke at 3100 ft, 945 m
Temperature:15°C, 59°F
Dew-point:9°C, 48°F
Atmospheric pressure:1009 hPa, 756.8 mmHg, 29.80 inHg, 0.996 atm
Relative humidity:67.3 %
METAR:EFJO 131220Z AUTO 15013G27KT 090V210 9999 OVC031 15/09 Q1009

Snelkoppelingen

Actuele weersinformatie van de hele wereld. Voeg locaties toe met het plus (+) symbool. Deze snelkoppelingen kunnen worden toegevoegd aan Google.

Lid van de Technetium groep

website free tracking
StatCounter NetStat W3C Validator

06-12-2019 09:32:44
astro.technetium.be money.technetium.be phote.technetium.be tafeltennistafel.technetium.be www.ligfiets.net